Time;durP1;ratioP1;P1;durP2;ratioP2;P2;SDS_P1;SDS_P2;PMS_P1;PMS_P2;Temp;Humidity;BMP_temperature;BMP_pressure;BME280_temperature;BME280_humidity;BME280_pressure;Samples;Min_cycle;Max_cycle;Signal;HPM_P1;HPM_P2
2023/10/14 00:01:07;;;;;;;54.30;39.80;;;15.90;99.90;;;;;;4954314;29;20102;-77
2023/10/14 00:03:33;;;;;;;43.50;35.70;;;15.90;99.90;;;;;;4954238;29;20439;-77
2023/10/14 00:06:06;;;;;;;48.63;34.28;;;15.90;99.90;;;;;;4954185;29;20046;-77
2023/10/14 00:08:33;;;;;;;;;;;15.90;99.90;;;;;;4954671;29;20062;-77
2023/10/14 00:11:06;;;;;;;42.38;33.55;;;15.90;99.90;;;;;;4954320;29;19961;-76
2023/10/14 00:13:42;;;;;;;45.90;33.38;;;15.80;99.90;;;;;;4954110;29;20027;-77
2023/10/14 00:16:35;;;;;;;39.67;33.50;;;15.70;99.90;;;;;;4954118;29;20047;-76
2023/10/14 00:19:09;;;;;;;47.47;34.03;;;15.70;99.90;;;;;;4945024;29;20486;-77
2023/10/14 00:21:36;;;;;;;44.25;35.60;;;15.50;99.90;;;;;;4955194;28;20070;-75
2023/10/14 00:24:06;;;;;;;48.50;35.30;;;15.20;99.90;;;;;;4957793;29;20039;-77
2023/10/14 00:26:32;;;;;;;48.80;35.33;;;15.40;99.90;;;;;;4957374;29;20031;-77
2023/10/14 00:31:58;;;;;;;55.92;35.58;;;15.30;99.90;;;;;;4917230;29;20036;-76
2023/10/14 00:34:25;;;;;;;47.80;36.38;;;15.30;99.90;;;;;;4901117;29;20080;-77
2023/10/14 00:36:56;;;;;;;46.13;35.63;;;15.30;99.90;;;;;;4901291;29;20031;-77
2023/10/14 00:39:32;;;;;;;47.05;37.45;;;15.20;99.90;;;;;;4917044;29;20036;-76
2023/10/14 00:41:58;;;;;;;42.25;36.58;;;15.20;99.90;;;;;;4901240;29;20044;-76
2023/10/14 00:44:25;;;;;;;43.10;37.50;;;15.20;99.90;;;;;;4917086;29;20023;-76
2023/10/14 00:46:52;;;;;;;45.92;37.22;;;15.20;99.90;;;;;;4916844;29;20420;-75
2023/10/14 00:49:23;;;;;;;45.30;35.80;;;15.10;99.90;;;;;;4917030;29;20499;-74
2023/10/14 00:51:53;;;;;;;44.58;35.30;;;15.10;99.90;;;;;;4916720;29;20036;-77
2023/10/14 00:57:20;;;;;;;39.17;32.50;;;15.00;99.90;;;;;;4916672;29;20087;-75
2023/10/14 00:59:47;;;;;;;41.17;34.92;;;14.90;99.90;;;;;;4917004;29;20079;-77
2023/10/14 01:02:14;;;;;;;44.55;36.15;;;14.80;99.90;;;;;;4916698;29;20461;-77
2023/10/14 01:04:51;;;;;;;46.30;36.90;;;14.80;99.90;;;;;;4900773;29;20036;-75
2023/10/14 01:07:17;;;;;;;44.63;36.63;;;14.80;99.90;;;;;;4933015;29;20047;-77
2023/10/14 01:12:16;;;;;;;50.50;38.70;;;14.90;99.90;;;;;;4935819;29;20040;-76
2023/10/14 01:14:52;;;;;;;47.92;37.38;;;14.90;99.90;;;;;;4953126;29;20054;-76
2023/10/14 01:17:28;;;;;;;46.42;37.70;;;14.90;99.90;;;;;;4956466;29;20031;-77
2023/10/14 01:22:51;;;;;;;40.15;32.83;;;14.90;99.90;;;;;;4937809;29;20118;-77
2023/10/14 01:25:24;;;;;;;39.28;32.08;;;14.90;99.90;;;;;;4956456;29;20035;-77
2023/10/14 01:27:50;;;;;;;42.40;33.72;;;;;;;;;;4955100;29;20424;-76
2023/10/14 01:30:25;;;;;;;41.67;36.08;;;;;;;;;;4956744;29;20150;-77
2023/10/14 01:32:51;;;;;;;43.25;34.83;;;;;;;;;;4938279;29;20086;-76
2023/10/14 01:35:32;;;;;;;43.00;35.50;;;;;;;;;;4938892;29;20019;-76
2023/10/14 01:37:58;;;;;;;41.13;34.70;;;;;;;;;;4956275;29;20031;-76
2023/10/14 01:40:35;;;;;;;49.00;36.67;;;;;;;;;;4954984;29;20043;-76
2023/10/14 01:43:08;;;;;;;43.40;35.90;;;14.50;99.90;;;;;;4944714;29;20020;-76
2023/10/14 01:45:40;;;;;;;49.80;36.72;;;14.60;99.90;;;;;;4954639;29;20482;-76
2023/10/14 01:50:47;;;;;;;50.33;35.88;;;14.60;99.90;;;;;;4955778;29;20027;-74
2023/10/14 01:53:23;;;;;;;41.17;36.33;;;14.50;99.90;;;;;;4955846;29;20079;-76
2023/10/14 01:55:52;;;;;;;43.22;35.92;;;14.40;99.90;;;;;;4954475;28;20077;-76
2023/10/14 01:58:23;;;;;;;48.45;36.40;;;14.40;99.90;;;;;;4954353;29;20027;-76
2023/10/14 02:00:58;;;;;;;43.53;37.65;;;14.40;99.90;;;;;;4954436;28;20034;-76
2023/10/14 02:03:24;;;;;;;42.47;35.47;;;14.40;99.90;;;;;;4955802;29;20023;-75
2023/10/14 02:05:53;;;;;;;49.03;37.17;;;14.50;99.90;;;;;;4955923;29;20065;-76
2023/10/14 02:08:23;;;;;;;41.67;35.15;;;14.40;99.90;;;;;;4954313;28;20122;-76
2023/10/14 02:10:50;;;;;;;38.17;32.58;;;14.40;99.90;;;;;;4954503;29;20062;-77
2023/10/14 02:13:23;;;;;;;36.58;32.55;;;14.40;99.90;;;;;;4954222;29;20038;-75
2023/10/14 02:15:52;;;;;;;42.17;29.92;;;14.40;99.90;;;;;;4954232;29;20046;-76
2023/10/14 02:18:22;;;;;;;44.10;32.90;;;14.30;99.90;;;;;;4950605;29;20497;-77
2023/10/14 02:21:05;;;;;;;46.45;36.25;;;14.20;99.90;;;;;;4948387;29;20543;-77
2023/10/14 02:23:45;;;;;;;44.63;35.78;;;14.10;99.90;;;;;;4954046;29;20122;-78
2023/10/14 02:26:42;;;;;;;43.72;36.95;;;14.10;99.90;;;;;;4955404;29;20027;-77
2023/10/14 02:29:09;;;;;;;42.70;36.83;;;14.10;99.90;;;;;;4934816;29;20144;-76
2023/10/14 02:31:38;;;;;;;43.30;36.90;;;14.00;99.90;;;;;;4955388;29;20035;-77
2023/10/14 02:34:06;;;;;;;49.42;36.58;;;13.90;99.90;;;;;;4935855;29;20030;-77
2023/10/14 02:36:36;;;;;;;46.67;38.25;;;14.00;99.90;;;;;;4955216;29;20027;-77
2023/10/14 02:39:04;;;;;;;48.22;37.60;;;13.90;99.90;;;;;;4954714;29;20062;-77
2023/10/14 02:41:32;;;;;;;46.38;36.47;;;13.90;99.90;;;;;;4955166;29;20023;-77
2023/10/14 02:46:43;;;;;;;45.33;36.85;;;14.00;99.90;;;;;;4934345;29;20050;-77
2023/10/14 02:49:13;;;;;;;45.45;37.88;;;14.00;99.90;;;;;;4953767;29;20039;-77
2023/10/14 02:51:43;;;;;;;45.95;37.10;;;13.90;99.90;;;;;;4955142;29;20028;-75
2023/10/14 02:54:26;;;;;;;46.67;38.22;;;13.90;99.90;;;;;;4954864;29;20436;-77
2023/10/14 02:59:21;;;;;;;48.33;36.60;;;;;;;;;;4954829;29;20132;-76
2023/10/14 03:01:52;;;;;;;50.10;36.80;;;;;;;;;;4954372;29;20034;-77
2023/10/14 03:04:23;;;;;;;44.20;36.03;;;;;;;;;;4934247;29;20038;-78
2023/10/14 03:06:53;;;;;;;45.13;37.13;;;13.80;99.90;;;;;;4934423;29;20059;-77
2023/10/14 03:09:20;;;;;;;47.28;37.05;;;13.80;99.90;;;;;;4946640;29;20032;-77
2023/10/14 03:11:48;;;;;;;43.55;36.92;;;13.80;99.90;;;;;;4954677;29;20066;-76
2023/10/14 03:14:17;;;;;;;44.25;35.65;;;13.80;99.90;;;;;;4954923;29;20031;-77
2023/10/14 03:16:44;;;;;;;44.55;36.55;;;13.70;99.90;;;;;;4954195;29;20115;-77
2023/10/14 03:19:11;;;;;;;45.53;36.95;;;13.70;99.90;;;;;;4954453;29;20128;-77
2023/10/14 03:21:41;;;;;;;50.08;38.47;;;13.70;99.90;;;;;;4954314;29;20427;-77
2023/10/14 03:24:10;;;;;;;47.50;38.78;;;;;;;;;;4954597;29;20098;-76
2023/10/14 03:26:37;;;;;;;48.30;37.92;;;;;;;;;;4953758;29;20096;-77
2023/10/14 03:29:14;;;;;;;50.42;38.75;;;;;;;;;;4954817;29;20039;-77
2023/10/14 03:31:44;;;;;;;50.67;41.67;;;;;;;;;;4954505;29;20391;-76
2023/10/14 03:34:11;;;;;;;50.72;39.72;;;;;;;;;;4954233;29;20045;-77
2023/10/14 03:36:42;;;;;;;51.80;40.80;;;;;;;;;;4954808;29;20015;-77
2023/10/14 03:39:37;;;;;;;50.75;41.20;;;;;;;;;;4954289;29;20039;-76
2023/10/14 03:42:10;;;;;;;53.17;45.45;;;;;;;;;;4954329;29;20062;-75
2023/10/14 03:44:36;;;;;;;;;;;;;;;;;;4955007;29;20059;-76
2023/10/14 03:47:05;;;;;;;65.03;48.25;;;;;;;;;;4953956;29;19959;-76
2023/10/14 03:49:33;;;;;;;50.08;44.55;;;;;;;;;;4954173;29;20023;-78
2023/10/14 03:51:59;;;;;;;65.40;50.63;;;;;;;;;;4954005;28;20372;-77
2023/10/14 03:54:41;;;;;;;63.00;51.42;;;;;;;;;;4954502;29;20485;-76
2023/10/14 03:57:14;;;;;;;67.75;50.28;;;;;;;;;;4956649;28;20031;-77
2023/10/14 03:59:42;;;;;;;60.30;48.72;;;;;;;;;;4958325;29;20069;-77
2023/10/14 04:02:08;;;;;;;58.13;48.22;;;;;;;;;;4958011;29;20121;-75
2023/10/14 04:04:35;;;;;;;51.08;45.40;;;;;;;;;;4957827;29;20023;-76
2023/10/14 04:09:38;;;;;;;54.78;44.50;;;;;;;;;;4957951;29;20494;-76
2023/10/14 04:12:08;;;;;;;57.20;47.50;;;;;;;;;;4957785;29;20387;-77
2023/10/14 04:14:36;;;;;;;54.92;44.47;;;;;;;;;;4957774;29;20038;-76
2023/10/14 04:17:19;;;;;;;52.35;44.50;;;;;;;;;;4957635;29;20022;-77
2023/10/14 04:20:05;;;;;;;54.72;43.53;;;;;;;;;;4957935;29;20447;-76
2023/10/14 04:22:31;;;;;;;54.53;42.67;;;;;;;;;;4957826;29;20023;-76
2023/10/14 04:25:15;;;;;;;51.20;41.55;;;;;;;;;;4957672;29;20027;-76
2023/10/14 04:27:45;;;;;;;52.40;42.42;;;;;;;;;;4957400;29;20023;-77
2023/10/14 04:30:13;;;;;;;56.70;41.53;;;;;;;;;;4957827;29;20031;-76
2023/10/14 04:32:43;;;;;;;51.70;41.20;;;;;;;;;;4957249;29;20023;-76
2023/10/14 04:35:12;;;;;;;56.92;41.67;;;;;;;;;;4957600;29;20035;-76
2023/10/14 04:37:51;;;;;;;50.95;38.33;;;;;;;;;;4957276;29;20019;-77
2023/10/14 04:46:00;;;;;;;46.92;35.45;;;;;;;;;;4897942;29;20056;-78
2023/10/14 04:48:28;;;;;;;46.03;35.58;;;;;;;;;;4898026;29;20049;-77
2023/10/14 04:50:57;;;;;;;44.85;34.88;;;;;;;;;;4898195;29;20111;-77
2023/10/14 04:53:26;;;;;;;45.03;34.67;;;;;;;;;;4898081;29;20053;-77
2023/10/14 04:55:55;;;;;;;39.95;33.83;;;;;;;;;;4898047;29;20473;-74
2023/10/14 04:58:25;;;;;;;40.35;30.23;;;;;;;;;;4898051;29;20063;-76
2023/10/14 05:00:52;;;;;;;43.00;30.38;;;;;;;;;;4898005;29;20044;-74
2023/10/14 05:03:21;;;;;;;36.17;27.35;;;;;;;;;;4897693;29;20263;-78
2023/10/14 05:05:50;;;;;;;43.33;29.48;;;;;;;;;;4898127;29;20070;-75
2023/10/14 05:08:16;;;;;;;43.92;27.73;;;;;;;;;;4896769;29;20033;-74
2023/10/14 05:10:50;;;;;;;38.00;27.77;;;;;;;;;;4898020;29;20137;-76
2023/10/14 05:13:19;;;;;;;37.08;27.50;;;;;;;;;;4897706;29;20456;-76
2023/10/14 05:15:53;;;;;;;37.17;27.23;;;;;;;;;;4897648;29;20045;-76
2023/10/14 05:18:27;;;;;;;34.03;25.83;;;;;;;;;;4897624;29;20032;-76
2023/10/14 05:21:10;;;;;;;31.30;22.98;;;;;;;;;;4897783;29;20165;-76
2023/10/14 05:23:38;;;;;;;33.95;23.85;;;;;;;;;;4937595;29;20047;-76
2023/10/14 05:26:06;;;;;;;33.22;24.33;;;15.00;99.90;;;;;;4937817;29;20038;-76
2023/10/14 05:28:36;;;;;;;29.67;24.10;;;;;;;;;;4956487;29;20031;-76
2023/10/14 05:31:09;;;;;;;34.05;23.45;;;15.70;99.90;;;;;;4956302;29;20027;-75
2023/10/14 05:33:35;;;;;;;34.30;23.05;;;16.00;99.90;;;;;;4945468;29;20083;-77
2023/10/14 05:36:01;;;;;;;31.45;22.30;;;16.30;99.90;;;;;;4950287;29;20031;-76
2023/10/14 05:38:29;;;;;;;30.23;20.58;;;16.50;99.90;;;;;;4948704;29;20122;-75
2023/10/14 05:40:57;;;;;;;32.25;21.88;;;16.70;99.90;;;;;;4943730;29;20534;-74
2023/10/14 05:43:24;;;;;;;33.50;21.80;;;16.90;99.90;;;;;;4944151;29;20444;-75
2023/10/14 05:45:53;;;;;;;33.28;22.05;;;17.00;99.90;;;;;;4949896;29;20106;-76
2023/10/14 05:48:26;;;;;;;30.02;21.02;;;17.30;99.90;;;;;;4950142;29;20043;-78
2023/10/14 05:50:54;;;;;;;31.77;22.25;;;17.40;99.90;;;;;;4943835;29;20027;-74
2023/10/14 05:53:20;;;;;;;47.53;32.33;;;17.20;99.90;;;;;;4943609;29;20578;-77
2023/10/14 05:55:56;;;;;;;37.47;24.48;;;17.00;99.90;;;;;;4949576;29;20103;-77
2023/10/14 05:58:27;;;;;;;34.55;22.88;;;16.80;99.90;;;;;;4951153;29;20028;-78
2023/10/14 06:00:55;;;;;;;33.28;22.20;;;16.80;99.90;;;;;;4948785;29;20039;-77
2023/10/14 06:03:20;;;;;;;30.23;21.67;;;16.70;99.90;;;;;;4955746;29;20035;-77
2023/10/14 06:05:46;;;;;;;33.67;24.00;;;16.60;99.90;;;;;;4950168;29;20389;-76
2023/10/14 06:08:16;;;;;;;41.95;23.58;;;16.70;99.90;;;;;;4947288;29;20040;-77
2023/10/14 06:10:43;;;;;;;34.97;24.40;;;16.70;99.90;;;;;;4949476;29;20041;-77
2023/10/14 06:13:09;;;;;;;40.58;22.63;;;16.70;99.90;;;;;;4946490;29;20360;-75
2023/10/14 06:15:40;;;;;;;30.90;23.10;;;16.90;99.90;;;;;;4948047;29;20031;-77
2023/10/14 06:18:08;;;;;;;34.92;23.65;;;17.00;99.90;;;;;;4955571;29;20062;-77
2023/10/14 06:20:35;;;;;;;41.80;22.20;;;17.20;99.90;;;;;;4955078;28;20517;-75
2023/10/14 06:23:03;;;;;;;31.75;21.95;;;17.30;99.90;;;;;;4955543;29;20054;-76
2023/10/14 06:25:29;;;;;;;26.67;18.65;;;17.50;99.90;;;;;;4955564;29;20092;-78
2023/10/14 06:27:55;;;;;;;28.45;17.67;;;17.50;99.90;;;;;;4955375;29;20031;-78
2023/10/14 06:30:22;;;;;;;28.13;18.30;;;17.60;99.90;;;;;;4955279;29;20027;-78
2023/10/14 06:32:58;;;;;;;26.70;19.08;;;17.70;99.90;;;;;;4955246;29;20463;-79
2023/10/14 06:35:26;;;;;;;25.48;19.80;;;17.90;99.90;;;;;;4955314;29;20023;-77
2023/10/14 06:37:54;;;;;;;36.75;20.63;;;;;;;;;;4955165;29;20027;-77
2023/10/14 06:40:20;;;;;;;32.92;22.25;;;;;;;;;;4955422;29;20042;-75
2023/10/14 06:42:53;;;;;;;38.63;23.80;;;;;;;;;;4955080;29;20497;-78
2023/10/14 06:45:22;;;;;;;36.75;22.55;;;;;;;;;;4955210;28;20027;-75
2023/10/14 06:47:56;;;;;;;31.85;20.98;;;;;;;;;;4955416;29;20027;-77
2023/10/14 06:50:26;;;;;;;31.27;18.70;;;;;;;;;;4954848;29;20034;-78
2023/10/14 06:52:53;;;;;;;29.35;19.25;;;;;;;;;;4955295;29;20507;-76
2023/10/14 06:55:26;;;;;;;27.23;18.80;;;;;;;;;;4954997;29;20074;-78
2023/10/14 06:57:55;;;;;;;32.95;19.25;;;19.40;99.90;;;;;;4937799;29;20019;-77
2023/10/14 07:00:29;;;;;;;27.85;17.88;;;19.50;99.90;;;;;;4954108;29;20114;-77
2023/10/14 07:02:57;;;;;;;27.27;15.98;;;19.50;99.90;;;;;;4954865;29;20055;-78
2023/10/14 07:05:24;;;;;;;28.73;17.75;;;19.70;99.90;;;;;;4954703;29;20047;-79
2023/10/14 07:07:50;;;;;;;28.65;16.25;;;19.80;99.90;;;;;;4954570;29;20503;-75
2023/10/14 07:10:17;;;;;;;23.20;15.60;;;19.90;99.90;;;;;;4954873;29;20035;-78
2023/10/14 07:12:43;;;;;;;30.70;17.40;;;19.90;99.90;;;;;;4953420;29;20419;-78
2023/10/14 07:15:12;;;;;;;26.75;17.65;;;;;;;;;;4944050;29;20029;-79
2023/10/14 07:17:40;;;;;;;24.70;16.58;;;20.20;99.90;;;;;;4954664;29;20042;-79
2023/10/14 07:20:10;;;;;;;28.77;16.13;;;20.20;99.90;;;;;;4954654;29;20031;-78
2023/10/14 07:22:37;;;;;;;22.95;16.02;;;20.50;99.90;;;;;;4954604;29;20027;-77
2023/10/14 07:25:05;;;;;;;24.77;15.60;;;20.50;99.90;;;;;;4954737;29;20077;-78
2023/10/14 07:27:35;;;;;;;24.25;15.30;;;20.70;99.90;;;;;;4954371;29;20098;-79
2023/10/14 07:30:16;;;;;;;36.20;16.20;;;20.80;99.90;;;;;;4931420;29;20039;-79
2023/10/14 07:32:46;;;;;;;26.85;15.15;;;20.80;99.90;;;;;;4947426;29;20375;-80
2023/10/14 07:35:14;;;;;;;27.60;16.15;;;20.90;99.90;;;;;;4957841;29;20031;-78
2023/10/14 07:37:50;;;;;;;24.00;16.20;;;21.00;99.90;;;;;;4958619;29;20027;-76
2023/10/14 07:40:24;;;;;;;25.02;15.27;;;21.10;99.90;;;;;;4955722;29;20040;-78
2023/10/14 07:42:54;;;;;;;28.23;16.95;;;21.10;99.90;;;;;;4958446;29;20486;-79
2023/10/14 07:45:29;;;;;;;26.27;15.88;;;21.30;99.90;;;;;;4955408;29;20027;-80
2023/10/14 07:47:57;;;;;;;23.42;15.70;;;21.40;99.90;;;;;;4954417;29;20030;-80
2023/10/14 07:50:24;;;;;;;27.67;15.35;;;21.40;99.90;;;;;;4958109;29;20019;-78
2023/10/14 07:52:54;;;;;;;22.88;14.07;;;21.50;99.90;;;;;;4945723;29;20046;-78
2023/10/14 07:55:25;;;;;;;28.95;16.40;;;21.50;99.90;;;;;;4957938;29;20103;-76
2023/10/14 07:57:51;;;;;;;24.35;14.35;;;21.60;99.90;;;;;;4958512;29;20023;-77
2023/10/14 08:00:18;;;;;;;22.10;13.95;;;;;;;;;;4957979;29;20494;-80
2023/10/14 08:02:44;;;;;;;23.92;13.15;;;21.90;99.90;;;;;;4958309;29;20109;-77
2023/10/14 08:05:11;;;;;;;24.63;13.98;;;21.90;99.90;;;;;;4957908;29;20110;-77
2023/10/14 08:07:40;;;;;;;21.98;12.90;;;21.80;99.70;;;;;;4958206;29;20099;-80
2023/10/14 08:10:18;;;;;;;24.27;13.30;;;22.00;99.90;;;;;;4955800;29;20059;-76
2023/10/14 08:12:46;;;;;;;17.17;12.02;;;22.10;99.60;;;;;;4951823;29;20035;-77
2023/10/14 08:15:18;;;;;;;22.63;12.70;;;22.20;99.00;;;;;;4927682;29;20132;-80
2023/10/14 08:17:45;;;;;;;22.40;11.50;;;22.30;98.80;;;;;;4946511;29;20458;-80
2023/10/14 08:20:18;;;;;;;20.08;10.50;;;22.50;99.90;;;;;;4957671;29;20039;-77
2023/10/14 08:22:46;;;;;;;20.20;11.85;;;22.70;99.90;;;;;;4957469;29;20459;-77
2023/10/14 08:25:18;;;;;;;18.52;10.98;;;22.80;99.90;;;;;;4957866;29;20037;-78
2023/10/14 08:27:50;;;;;;;19.52;11.70;;;;;;;;;;4957844;29;20028;-77
2023/10/14 08:30:16;;;;;;;21.60;11.45;;;22.80;99.90;;;;;;4957967;29;20122;-78
2023/10/14 08:32:43;;;;;;;19.42;10.40;;;23.20;99.90;;;;;;4957651;29;20031;-80
2023/10/14 08:35:17;;;;;;;17.85;11.85;;;;;;;;;;4947271;29;20433;-79
2023/10/14 08:37:47;;;;;;;19.75;10.90;;;;;;;;;;4953131;29;20042;-76
2023/10/14 08:40:16;;;;;;;18.15;10.73;;;23.40;99.90;;;;;;4940852;29;20040;-79
2023/10/14 08:43:06;;;;;;;18.33;10.02;;;23.50;99.90;;;;;;4957277;28;20099;-78
2023/10/14 08:45:38;;;;;;;17.05;10.20;;;23.70;99.40;;;;;;4947000;29;20030;-75
2023/10/14 08:48:11;;;;;;;19.75;11.65;;;23.80;98.70;;;;;;4940434;29;20035;-78
2023/10/14 08:50:39;;;;;;;20.60;10.93;;;23.90;99.10;;;;;;4957226;29;20886;-80
2023/10/14 08:53:10;;;;;;;19.55;10.68;;;24.00;99.90;;;;;;4956918;29;20058;-79
2023/10/14 08:55:39;;;;;;;26.27;11.60;;;24.10;99.90;;;;;;4957379;29;20035;-79
2023/10/14 08:58:07;;;;;;;18.85;11.30;;;24.20;99.90;;;;;;4956980;29;20107;-78
2023/10/14 09:00:37;;;;;;;18.33;8.77;;;;;;;;;;4956747;29;20047;-80
2023/10/14 09:03:09;;;;;;;14.43;8.55;;;;;;;;;;4956432;29;20027;-80
2023/10/14 09:05:40;;;;;;;17.05;8.77;;;24.50;99.90;;;;;;4956635;29;20356;-77
2023/10/14 09:08:11;;;;;;;17.15;7.28;;;24.70;99.90;;;;;;4957113;29;20031;-81
2023/10/14 09:10:37;;;;;;;14.75;6.82;;;24.80;99.90;;;;;;4956657;29;20103;-77
2023/10/14 09:13:08;;;;;;;17.40;7.50;;;24.80;99.90;;;;;;4956909;28;20019;-80
2023/10/14 09:15:39;;;;;;;14.55;6.22;;;24.90;99.90;;;;;;4956715;29;20031;-80
2023/10/14 09:18:30;;;;;;;14.17;5.60;;;25.00;99.90;;;;;;4956877;29;20042;-80
2023/10/14 09:20:59;;;;;;;11.40;5.65;;;25.10;99.90;;;;;;4956581;29;20704;-80
2023/10/14 09:23:31;;;;;;;12.45;5.97;;;25.20;94.70;;;;;;4956860;29;20034;-81
2023/10/14 09:26:01;;;;;;;12.57;6.07;;;25.00;93.90;;;;;;4952127;29;20027;-80
2023/10/14 09:28:28;;;;;;;16.48;5.82;;;25.00;92.60;;;;;;4944979;29;20474;-79
2023/10/14 09:30:57;;;;;;;11.00;5.15;;;25.00;93.30;;;;;;4954021;29;20032;-80
2023/10/14 09:33:28;;;;;;;11.63;5.25;;;25.10;92.70;;;;;;4956446;29;20035;-80
2023/10/14 09:36:14;;;;;;;9.50;5.35;;;25.10;92.00;;;;;;4956510;29;20101;-78
2023/10/14 09:38:41;;;;;;;12.65;5.88;;;25.20;92.40;;;;;;4956453;29;20110;-79
2023/10/14 09:41:11;;;;;;;18.02;6.30;;;25.30;93.40;;;;;;4956500;29;20444;-79
2023/10/14 09:43:39;;;;;;;11.35;5.63;;;25.40;93.90;;;;;;4956419;29;20478;-78
2023/10/14 09:46:12;;;;;;;13.73;5.22;;;25.50;91.60;;;;;;4956143;29;20545;-78
2023/10/14 09:48:40;;;;;;;10.07;5.18;;;;;;;;;;4956417;29;20046;-79
2023/10/14 09:51:08;;;;;;;9.98;5.25;;;25.40;99.50;;;;;;4955956;29;20113;-80
2023/10/14 09:53:37;;;;;;;10.25;4.70;;;25.50;88.90;;;;;;4955345;28;20058;-77
2023/10/14 09:56:07;;;;;;;8.60;4.57;;;25.60;88.70;;;;;;4947243;29;20031;-77
2023/10/14 09:58:35;;;;;;;13.70;6.60;;;25.70;90.70;;;;;;4956095;29;20019;-80
2023/10/14 10:01:03;;;;;;;13.63;5.25;;;25.80;92.50;;;;;;4955548;29;20356;-80
2023/10/14 10:03:37;;;;;;;10.07;4.57;;;25.80;94.50;;;;;;4955805;29;20082;-77
2023/10/14 10:06:23;;;;;;;12.80;5.47;;;25.80;90.30;;;;;;4954962;29;20505;-81
2023/10/14 10:09:26;;;;;;;8.98;4.70;;;25.80;88.10;;;;;;4954913;29;20063;-78
2023/10/14 10:11:55;;;;;;;11.52;4.47;;;25.90;87.70;;;;;;4956024;29;20031;-82
2023/10/14 10:14:22;;;;;;;9.13;4.72;;;26.10;90.60;;;;;;4951576;29;20058;-77
2023/10/14 10:16:52;;;;;;;9.00;3.92;;;;;;;;;;4947573;29;20078;-82
2023/10/14 10:19:18;;;;;;;11.32;4.38;;;26.00;96.30;;;;;;4955137;29;20422;-81
2023/10/14 10:22:03;;;;;;;10.48;5.63;;;;;;;;;;4955630;29;20024;-80
2023/10/14 10:24:38;;;;;;;8.55;4.53;;;26.00;93.90;;;;;;4951237;29;20023;-78
2023/10/14 10:27:07;;;;;;;18.58;4.95;;;26.00;92.10;;;;;;4955753;29;20356;-78
2023/10/14 10:30:05;;;;;;;9.93;4.15;;;26.00;91.80;;;;;;4955577;29;20111;-81
2023/10/14 10:32:35;;;;;;;13.15;5.90;;;26.10;91.50;;;;;;4933857;29;20091;-80
2023/10/14 10:35:06;;;;;;;8.93;4.38;;;25.90;91.40;;;;;;4934291;29;20016;-76
2023/10/14 10:37:51;;;;;;;;;;;25.90;91.00;;;;;;4906068;29;20115;-78
2023/10/14 10:40:25;;;;;;;10.35;4.97;;;26.00;90.60;;;;;;4921563;29;19929;-78
2023/10/14 10:42:57;;;;;;;14.40;5.32;;;26.10;91.30;;;;;;4926616;29;20114;-78
2023/10/14 10:45:32;;;;;;;7.15;4.03;;;26.20;91.00;;;;;;4927696;29;20031;-80
2023/10/14 10:48:04;;;;;;;10.50;4.50;;;26.20;90.70;;;;;;4925331;29;20047;-77
2023/10/14 10:50:34;;;;;;;8.55;3.95;;;26.30;89.40;;;;;;4921453;29;20594;-80
2023/10/14 10:53:06;;;;;;;14.60;4.43;;;26.20;88.80;;;;;;4922110;29;20044;-77
2023/10/14 10:55:37;;;;;;;9.68;4.32;;;26.20;89.80;;;;;;4921868;29;20036;-80
2023/10/14 10:58:04;;;;;;;12.20;4.93;;;26.20;90.50;;;;;;4915884;29;20040;-76
2023/10/14 11:00:30;;;;;;;9.52;3.67;;;26.20;91.10;;;;;;4925874;29;20048;-81
2023/10/14 11:02:57;;;;;;;10.23;4.80;;;26.30;90.80;;;;;;4927559;29;20044;-80
2023/10/14 11:05:25;;;;;;;8.10;4.05;;;26.20;74.10;;;;;;4920822;29;20034;-76
2023/10/14 11:07:52;;;;;;;9.05;3.90;;;;;;;;;;4924405;29;20040;-75
2023/10/14 11:10:28;;;;;;;8.90;4.30;;;;;;;;;;4954433;29;20148;-75
2023/10/14 11:12:55;;;;;;;9.70;4.32;;;;;;;;;;4954831;29;20118;-77
2023/10/14 11:15:22;;;;;;;9.50;4.32;;;;;;;;;;4954833;29;20036;-74
2023/10/14 11:17:52;;;;;;;6.45;3.88;;;;;;;;;;4954868;29;20042;-77
2023/10/14 11:20:20;;;;;;;8.70;4.00;;;26.30;90.90;;;;;;4954933;29;20094;-75
2023/10/14 11:22:46;;;;;;;11.10;4.38;;;26.40;73.40;;;;;;4953068;29;20408;-77
2023/10/14 11:25:18;;;;;;;8.98;3.67;;;26.30;72.10;;;;;;4954809;29;20035;-79
2023/10/14 11:27:45;;;;;;;;;;;26.40;71.10;;;;;;4942972;29;20055;-78
2023/10/14 11:30:21;;;;;;;7.93;3.38;;;26.30;71.50;;;;;;4943427;29;19906;-77
2023/10/14 11:32:51;;;;;;;7.90;3.63;;;26.40;72.00;;;;;;4942141;29;20090;-77
2023/10/14 11:35:18;;;;;;;8.23;3.80;;;26.30;70.70;;;;;;4954918;29;20072;-81
2023/10/14 11:37:55;;;;;;;14.00;5.07;;;26.30;71.80;;;;;;4946558;29;20026;-83
2023/10/14 11:40:26;;;;;;;8.65;4.75;;;26.20;71.90;;;;;;4947328;29;20040;-75
2023/10/14 11:42:55;;;;;;;12.23;4.90;;;;;;;;;;4948655;29;20015;-81
2023/10/14 11:45:22;;;;;;;9.80;4.47;;;26.20;71.30;;;;;;4953053;29;20038;-76
2023/10/14 11:47:48;;;;;;;9.07;3.58;;;26.40;72.50;;;;;;4954281;29;20040;-81
2023/10/14 11:50:17;;;;;;;12.43;4.97;;;26.40;73.20;;;;;;4953495;29;20034;-81
2023/10/14 11:52:46;;;;;;;10.32;4.13;;;26.30;72.40;;;;;;4946857;29;20042;-75
2023/10/14 11:55:16;;;;;;;10.35;4.28;;;26.40;72.10;;;;;;4939491;29;20063;-82
2023/10/14 11:57:46;;;;;;;13.50;4.75;;;26.30;71.90;;;;;;4948163;29;20020;-78
2023/10/14 12:00:17;;;;;;;7.82;4.22;;;26.30;71.30;;;;;;4937006;29;20057;-83
2023/10/14 12:02:52;;;;;;;9.50;4.63;;;26.50;72.00;;;;;;4936741;29;20034;-77
2023/10/14 12:05:19;;;;;;;7.60;3.90;;;26.30;72.00;;;;;;4947959;29;20045;-84
2023/10/14 12:07:48;;;;;;;9.18;4.45;;;26.40;71.80;;;;;;4927164;29;20055;-83
2023/10/14 12:10:14;;;;;;;9.68;5.07;;;26.50;71.40;;;;;;4954390;29;20094;-84
2023/10/14 12:12:40;;;;;;;8.45;3.85;;;;;;;;;;4954347;29;20027;-79
2023/10/14 12:15:07;;;;;;;9.45;4.03;;;26.50;72.10;;;;;;4954040;29;20042;-82
2023/10/14 12:17:34;;;;;;;8.18;4.35;;;26.50;72.40;;;;;;4947877;28;20131;-78
2023/10/14 12:20:10;;;;;;;11.20;5.18;;;26.50;71.20;;;;;;4951197;29;20035;-83
2023/10/14 12:22:40;;;;;;;11.68;5.28;;;26.60;70.90;;;;;;4957885;29;20082;-79
2023/10/14 12:25:06;;;;;;;9.70;4.40;;;26.60;71.60;;;;;;4957707;29;20042;-82
2023/10/14 12:27:33;;;;;;;14.07;5.32;;;26.60;71.30;;;;;;4957684;29;20098;-82
2023/10/14 12:30:01;;;;;;;11.15;5.65;;;26.60;71.70;;;;;;4952537;29;20035;-77
2023/10/14 12:32:30;;;;;;;11.35;5.03;;;26.50;71.50;;;;;;4957772;29;20021;-82
2023/10/14 12:34:58;;;;;;;12.50;6.15;;;26.60;71.20;;;;;;4939397;29;20057;-82
2023/10/14 12:37:24;;;;;;;9.82;4.85;;;26.70;73.40;;;;;;4957694;29;20506;-81
2023/10/14 12:40:04;;;;;;;11.65;4.85;;;26.70;72.00;;;;;;4957381;29;20032;-83
2023/10/14 12:42:45;;;;;;;14.80;5.57;;;26.70;71.70;;;;;;4957430;29;20085;-77
2023/10/14 12:45:13;;;;;;;20.43;5.93;;;26.70;70.60;;;;;;4944900;29;20081;-84
2023/10/14 12:47:45;;;;;;;12.82;6.50;;;26.70;72.40;;;;;;4957397;29;20317;-81
2023/10/14 12:50:13;;;;;;;12.05;5.50;;;26.70;70.80;;;;;;4957510;29;20035;-76
2023/10/14 12:52:45;;;;;;;12.98;4.85;;;26.80;72.10;;;;;;4957124;29;20487;-76
2023/10/14 12:55:19;;;;;;;11.88;5.00;;;26.80;71.70;;;;;;4957571;29;20031;-75
2023/10/14 12:57:45;;;;;;;11.88;4.45;;;26.80;71.70;;;;;;4957374;29;20019;-75
2023/10/14 13:00:18;;;;;;;9.80;4.53;;;26.80;71.00;;;;;;4956992;29;20118;-83
2023/10/14 13:02:48;;;;;;;14.98;4.70;;;26.80;70.90;;;;;;4956487;29;20027;-77
2023/10/14 13:05:18;;;;;;;10.57;5.82;;;26.70;71.30;;;;;;4957438;29;20110;-75
2023/10/14 13:07:46;;;;;;;11.95;5.45;;;26.60;72.30;;;;;;4956886;29;20051;-77
2023/10/14 13:10:18;;;;;;;16.55;4.65;;;26.60;71.50;;;;;;4944298;29;20036;-77
2023/10/14 13:12:52;;;;;;;8.77;4.22;;;26.70;72.90;;;;;;4944907;29;20019;-82
2023/10/14 13:15:25;;;;;;;12.13;5.15;;;26.70;72.10;;;;;;4956677;29;20514;-75
2023/10/14 13:18:00;;;;;;;11.00;5.55;;;26.80;72.00;;;;;;4957181;29;20448;-79
2023/10/14 13:20:30;;;;;;;13.63;5.57;;;26.70;70.70;;;;;;4956084;29;20483;-79
2023/10/14 13:22:59;;;;;;;9.95;5.05;;;26.70;71.30;;;;;;4945219;29;20027;-79
2023/10/14 13:25:25;;;;;;;14.57;5.05;;;26.60;71.40;;;;;;4956922;29;20027;-81
2023/10/14 13:27:52;;;;;;;19.80;5.13;;;26.60;70.50;;;;;;4957097;29;20103;-75
2023/10/14 13:30:22;;;;;;;10.27;4.63;;;26.60;71.30;;;;;;4955981;28;20114;-76
2023/10/14 13:32:56;;;;;;;10.80;4.75;;;26.50;70.90;;;;;;4956734;29;20035;-78
2023/10/14 13:35:23;;;;;;;10.65;4.30;;;26.50;71.70;;;;;;4956910;29;20486;-75
2023/10/14 13:37:50;;;;;;;13.38;4.85;;;26.60;72.20;;;;;;4950799;29;20387;-80
2023/10/14 13:40:22;;;;;;;13.50;5.68;;;26.50;71.30;;;;;;4938547;29;20043;-83
2023/10/14 13:42:50;;;;;;;10.35;5.30;;;26.50;70.80;;;;;;4943908;29;20043;-75